sensor_id;sensor_type;location;lat;lon;timestamp;temperature;humidity
19088;DHT22;9676;50.916;13.352;2023-05-20T00:01:36;15.20;50.40
19088;DHT22;9676;50.916;13.352;2023-05-20T00:04:25;15.20;50.40
19088;DHT22;9676;50.916;13.352;2023-05-20T00:07:15;15.20;50.50
19088;DHT22;9676;50.916;13.352;2023-05-20T00:10:05;15.10;50.50
19088;DHT22;9676;50.916;13.352;2023-05-20T00:12:55;15.10;50.60
19088;DHT22;9676;50.916;13.352;2023-05-20T00:15:45;15.10;50.60
19088;DHT22;9676;50.916;13.352;2023-05-20T00:18:35;15.00;50.70
19088;DHT22;9676;50.916;13.352;2023-05-20T00:21:24;15.00;50.70
19088;DHT22;9676;50.916;13.352;2023-05-20T00:24:14;15.00;50.80
19088;DHT22;9676;50.916;13.352;2023-05-20T00:27:03;15.00;50.80
19088;DHT22;9676;50.916;13.352;2023-05-20T00:29:53;15.00;50.90
19088;DHT22;9676;50.916;13.352;2023-05-20T00:32:44;14.90;50.80
19088;DHT22;9676;50.916;13.352;2023-05-20T00:35:33;14.90;50.90
19088;DHT22;9676;50.916;13.352;2023-05-20T00:38:23;14.90;50.90
19088;DHT22;9676;50.916;13.352;2023-05-20T00:41:12;14.90;50.90
19088;DHT22;9676;50.916;13.352;2023-05-20T00:44:02;14.80;50.80
19088;DHT22;9676;50.916;13.352;2023-05-20T00:46:52;14.80;51.00
19088;DHT22;9676;50.916;13.352;2023-05-20T00:49:44;14.80;51.10
19088;DHT22;9676;50.916;13.352;2023-05-20T00:52:38;14.80;51.30
19088;DHT22;9676;50.916;13.352;2023-05-20T00:55:28;14.70;51.30
19088;DHT22;9676;50.916;13.352;2023-05-20T00:58:17;14.70;51.40
19088;DHT22;9676;50.916;13.352;2023-05-20T01:01:07;14.70;51.50
19088;DHT22;9676;50.916;13.352;2023-05-20T01:03:56;14.70;51.60
19088;DHT22;9676;50.916;13.352;2023-05-20T01:06:47;14.70;51.60
19088;DHT22;9676;50.916;13.352;2023-05-20T01:09:37;14.70;51.80
19088;DHT22;9676;50.916;13.352;2023-05-20T01:12:28;14.70;51.80
19088;DHT22;9676;50.916;13.352;2023-05-20T01:15:23;14.80;51.80
19088;DHT22;9676;50.916;13.352;2023-05-20T01:18:15;14.80;51.90
19088;DHT22;9676;50.916;13.352;2023-05-20T01:21:08;14.80;51.90
19088;DHT22;9676;50.916;13.352;2023-05-20T01:24:00;14.80;52.00
19088;DHT22;9676;50.916;13.352;2023-05-20T01:26:53;14.80;52.20
19088;DHT22;9676;50.916;13.352;2023-05-20T01:29:45;14.80;52.10
19088;DHT22;9676;50.916;13.352;2023-05-20T01:32:40;14.80;52.20
19088;DHT22;9676;50.916;13.352;2023-05-20T01:35:31;14.80;52.30
19088;DHT22;9676;50.916;13.352;2023-05-20T01:38:22;14.80;52.20
19088;DHT22;9676;50.916;13.352;2023-05-20T01:41:13;14.80;52.40
19088;DHT22;9676;50.916;13.352;2023-05-20T01:44:03;14.80;52.40
19088;DHT22;9676;50.916;13.352;2023-05-20T01:46:53;14.70;52.20
19088;DHT22;9676;50.916;13.352;2023-05-20T01:49:42;14.70;52.20
19088;DHT22;9676;50.916;13.352;2023-05-20T01:52:33;14.60;52.00
19088;DHT22;9676;50.916;13.352;2023-05-20T01:55:23;14.60;52.10
19088;DHT22;9676;50.916;13.352;2023-05-20T01:58:14;14.60;52.00
19088;DHT22;9676;50.916;13.352;2023-05-20T02:01:03;14.60;52.10
19088;DHT22;9676;50.916;13.352;2023-05-20T02:03:52;14.50;52.10
19088;DHT22;9676;50.916;13.352;2023-05-20T02:06:43;14.50;52.10
19088;DHT22;9676;50.916;13.352;2023-05-20T02:09:32;14.40;52.10
19088;DHT22;9676;50.916;13.352;2023-05-20T02:12:22;14.40;52.30
19088;DHT22;9676;50.916;13.352;2023-05-20T02:15:12;14.40;52.50
19088;DHT22;9676;50.916;13.352;2023-05-20T02:18:02;14.30;52.50
19088;DHT22;9676;50.916;13.352;2023-05-20T02:20:52;14.30;52.50
19088;DHT22;9676;50.916;13.352;2023-05-20T02:23:41;14.30;52.30
19088;DHT22;9676;50.916;13.352;2023-05-20T02:26:31;14.30;52.20
19088;DHT22;9676;50.916;13.352;2023-05-20T02:29:21;14.30;52.20
19088;DHT22;9676;50.916;13.352;2023-05-20T02:32:12;14.20;52.30
19088;DHT22;9676;50.916;13.352;2023-05-20T02:35:01;14.20;52.30
19088;DHT22;9676;50.916;13.352;2023-05-20T02:37:51;14.10;52.10
19088;DHT22;9676;50.916;13.352;2023-05-20T02:40:43;14.00;52.20
19088;DHT22;9676;50.916;13.352;2023-05-20T02:43:33;14.00;52.50
19088;DHT22;9676;50.916;13.352;2023-05-20T02:46:23;13.90;52.50
19088;DHT22;9676;50.916;13.352;2023-05-20T02:49:14;13.90;52.40
19088;DHT22;9676;50.916;13.352;2023-05-20T02:52:03;13.80;52.50
19088;DHT22;9676;50.916;13.352;2023-05-20T02:54:53;13.80;52.60
19088;DHT22;9676;50.916;13.352;2023-05-20T02:57:43;13.70;52.70
19088;DHT22;9676;50.916;13.352;2023-05-20T03:00:33;13.70;53.00
19088;DHT22;9676;50.916;13.352;2023-05-20T03:03:28;13.60;53.00
19088;DHT22;9676;50.916;13.352;2023-05-20T03:06:19;13.60;53.30
19088;DHT22;9676;50.916;13.352;2023-05-20T03:09:09;13.60;53.30
19088;DHT22;9676;50.916;13.352;2023-05-20T03:11:59;13.70;53.40
19088;DHT22;9676;50.916;13.352;2023-05-20T03:14:50;13.60;53.10
19088;DHT22;9676;50.916;13.352;2023-05-20T03:17:42;13.60;53.20
19088;DHT22;9676;50.916;13.352;2023-05-20T03:20:33;13.60;53.30
19088;DHT22;9676;50.916;13.352;2023-05-20T03:23:25;13.60;53.40
19088;DHT22;9676;50.916;13.352;2023-05-20T03:26:14;13.60;53.60
19088;DHT22;9676;50.916;13.352;2023-05-20T03:29:04;13.60;53.60
19088;DHT22;9676;50.916;13.352;2023-05-20T03:31:54;13.60;53.70
19088;DHT22;9676;50.916;13.352;2023-05-20T03:34:44;13.60;54.00
19088;DHT22;9676;50.916;13.352;2023-05-20T03:37:33;13.60;54.10
19088;DHT22;9676;50.916;13.352;2023-05-20T03:40:24;13.60;54.30
19088;DHT22;9676;50.916;13.352;2023-05-20T03:43:14;13.60;54.30
19088;DHT22;9676;50.916;13.352;2023-05-20T03:46:04;13.70;54.30
19088;DHT22;9676;50.916;13.352;2023-05-20T03:48:55;13.70;54.40
19088;DHT22;9676;50.916;13.352;2023-05-20T03:51:44;13.70;54.50
19088;DHT22;9676;50.916;13.352;2023-05-20T03:54:35;13.70;54.40
19088;DHT22;9676;50.916;13.352;2023-05-20T03:57:27;13.80;54.70
19088;DHT22;9676;50.916;13.352;2023-05-20T04:00:17;13.80;54.80
19088;DHT22;9676;50.916;13.352;2023-05-20T04:03:08;13.80;54.70
19088;DHT22;9676;50.916;13.352;2023-05-20T04:05:59;13.90;54.80
19088;DHT22;9676;50.916;13.352;2023-05-20T04:08:49;13.80;54.90
19088;DHT22;9676;50.916;13.352;2023-05-20T04:11:40;13.80;54.90
19088;DHT22;9676;50.916;13.352;2023-05-20T04:14:32;13.90;55.00
19088;DHT22;9676;50.916;13.352;2023-05-20T04:17:22;13.90;55.20
19088;DHT22;9676;50.916;13.352;2023-05-20T04:20:12;13.90;55.20
19088;DHT22;9676;50.916;13.352;2023-05-20T04:23:03;14.00;55.30
19088;DHT22;9676;50.916;13.352;2023-05-20T04:25:52;14.00;55.30
19088;DHT22;9676;50.916;13.352;2023-05-20T04:28:42;14.00;55.30
19088;DHT22;9676;50.916;13.352;2023-05-20T04:31:36;14.00;55.20
19088;DHT22;9676;50.916;13.352;2023-05-20T04:34:28;14.10;55.30
19088;DHT22;9676;50.916;13.352;2023-05-20T04:37:21;14.10;55.50
19088;DHT22;9676;50.916;13.352;2023-05-20T04:40:12;14.10;55.50
19088;DHT22;9676;50.916;13.352;2023-05-20T04:43:02;14.10;55.60
19088;DHT22;9676;50.916;13.352;2023-05-20T04:45:51;14.10;55.60
19088;DHT22;9676;50.916;13.352;2023-05-20T04:48:42;14.20;55.80
19088;DHT22;9676;50.916;13.352;2023-05-20T04:51:33;14.20;55.90
19088;DHT22;9676;50.916;13.352;2023-05-20T04:54:22;14.20;55.90
19088;DHT22;9676;50.916;13.352;2023-05-20T04:57:12;14.30;55.90
19088;DHT22;9676;50.916;13.352;2023-05-20T05:00:01;14.30;55.80
19088;DHT22;9676;50.916;13.352;2023-05-20T05:02:54;14.30;55.80
19088;DHT22;9676;50.916;13.352;2023-05-20T05:05:45;14.30;55.80
19088;DHT22;9676;50.916;13.352;2023-05-20T05:08:35;14.30;55.80
19088;DHT22;9676;50.916;13.352;2023-05-20T05:11:24;14.30;55.90
19088;DHT22;9676;50.916;13.352;2023-05-20T05:14:14;14.30;56.00
19088;DHT22;9676;50.916;13.352;2023-05-20T05:17:03;14.30;56.10
19088;DHT22;9676;50.916;13.352;2023-05-20T05:19:53;14.40;56.30
19088;DHT22;9676;50.916;13.352;2023-05-20T05:22:44;14.40;56.40
19088;DHT22;9676;50.916;13.352;2023-05-20T05:25:34;14.50;56.70
19088;DHT22;9676;50.916;13.352;2023-05-20T05:28:24;14.50;56.70
19088;DHT22;9676;50.916;13.352;2023-05-20T05:31:13;14.60;56.90
19088;DHT22;9676;50.916;13.352;2023-05-20T05:34:03;14.70;57.00
19088;DHT22;9676;50.916;13.352;2023-05-20T05:36:52;14.80;57.20
19088;DHT22;9676;50.916;13.352;2023-05-20T05:39:43;14.90;57.10
19088;DHT22;9676;50.916;13.352;2023-05-20T05:42:33;15.10;57.20
19088;DHT22;9676;50.916;13.352;2023-05-20T05:45:22;15.10;57.00
19088;DHT22;9676;50.916;13.352;2023-05-20T05:48:12;15.20;56.80
19088;DHT22;9676;50.916;13.352;2023-05-20T05:51:03;15.30;56.90
19088;DHT22;9676;50.916;13.352;2023-05-20T05:53:53;15.20;56.80
19088;DHT22;9676;50.916;13.352;2023-05-20T05:56:44;15.30;56.80
19088;DHT22;9676;50.916;13.352;2023-05-20T05:59:34;15.30;56.90
19088;DHT22;9676;50.916;13.352;2023-05-20T06:02:23;15.30;56.80
19088;DHT22;9676;50.916;13.352;2023-05-20T06:05:13;15.40;57.00
19088;DHT22;9676;50.916;13.352;2023-05-20T06:08:05;15.40;57.00
19088;DHT22;9676;50.916;13.352;2023-05-20T06:10:56;15.40;57.10
19088;DHT22;9676;50.916;13.352;2023-05-20T06:13:47;15.50;57.20
19088;DHT22;9676;50.916;13.352;2023-05-20T06:16:37;15.60;57.40
19088;DHT22;9676;50.916;13.352;2023-05-20T06:19:27;15.60;57.40
19088;DHT22;9676;50.916;13.352;2023-05-20T06:22:17;15.70;57.50
19088;DHT22;9676;50.916;13.352;2023-05-20T06:25:08;15.80;57.70
19088;DHT22;9676;50.916;13.352;2023-05-20T06:27:58;15.80;57.80
19088;DHT22;9676;50.916;13.352;2023-05-20T06:30:49;15.90;57.80
19088;DHT22;9676;50.916;13.352;2023-05-20T06:33:40;16.00;57.80
19088;DHT22;9676;50.916;13.352;2023-05-20T06:36:32;16.10;58.10
19088;DHT22;9676;50.916;13.352;2023-05-20T06:39:22;16.20;58.40
19088;DHT22;9676;50.916;13.352;2023-05-20T06:42:12;16.40;58.50
19088;DHT22;9676;50.916;13.352;2023-05-20T06:45:08;16.50;58.40
19088;DHT22;9676;50.916;13.352;2023-05-20T06:48:22;16.60;58.40
19088;DHT22;9676;50.916;13.352;2023-05-20T06:51:11;16.80;58.30
19088;DHT22;9676;50.916;13.352;2023-05-20T06:54:01;16.80;58.10
19088;DHT22;9676;50.916;13.352;2023-05-20T06:56:50;16.90;58.10
19088;DHT22;9676;50.916;13.352;2023-05-20T06:59:41;17.00;58.20
19088;DHT22;9676;50.916;13.352;2023-05-20T07:02:32;17.10;58.30
19088;DHT22;9676;50.916;13.352;2023-05-20T07:05:23;17.20;58.10
19088;DHT22;9676;50.916;13.352;2023-05-20T07:08:14;17.30;57.90
19088;DHT22;9676;50.916;13.352;2023-05-20T07:11:04;17.30;57.70
19088;DHT22;9676;50.916;13.352;2023-05-20T07:13:53;17.30;57.80
19088;DHT22;9676;50.916;13.352;2023-05-20T07:16:44;17.40;57.80
19088;DHT22;9676;50.916;13.352;2023-05-20T07:19:34;17.50;57.70
19088;DHT22;9676;50.916;13.352;2023-05-20T07:22:25;17.50;57.40
19088;DHT22;9676;50.916;13.352;2023-05-20T07:25:19;17.50;57.40
19088;DHT22;9676;50.916;13.352;2023-05-20T07:28:09;17.50;57.30
19088;DHT22;9676;50.916;13.352;2023-05-20T07:30:59;17.60;57.30
19088;DHT22;9676;50.916;13.352;2023-05-20T07:33:50;17.60;57.30
19088;DHT22;9676;50.916;13.352;2023-05-20T07:36:40;17.60;57.40
19088;DHT22;9676;50.916;13.352;2023-05-20T07:39:31;17.60;57.50
19088;DHT22;9676;50.916;13.352;2023-05-20T07:42:21;17.60;57.60
19088;DHT22;9676;50.916;13.352;2023-05-20T07:45:15;17.70;57.70
19088;DHT22;9676;50.916;13.352;2023-05-20T07:48:05;17.80;58.00
19088;DHT22;9676;50.916;13.352;2023-05-20T07:50:55;18.00;58.50
19088;DHT22;9676;50.916;13.352;2023-05-20T07:53:47;18.10;58.70
19088;DHT22;9676;50.916;13.352;2023-05-20T07:56:38;18.30;58.70
19088;DHT22;9676;50.916;13.352;2023-05-20T07:59:30;18.50;58.80
19088;DHT22;9676;50.916;13.352;2023-05-20T08:02:19;18.70;59.40
19088;DHT22;9676;50.916;13.352;2023-05-20T08:05:10;18.90;59.70
19088;DHT22;9676;50.916;13.352;2023-05-20T08:07:59;19.30;60.20
19088;DHT22;9676;50.916;13.352;2023-05-20T08:10:55;19.60;60.30
19088;DHT22;9676;50.916;13.352;2023-05-20T08:13:48;19.90;60.40
19088;DHT22;9676;50.916;13.352;2023-05-20T08:16:37;20.30;60.50
19088;DHT22;9676;50.916;13.352;2023-05-20T08:19:27;20.60;60.80
19088;DHT22;9676;50.916;13.352;2023-05-20T08:22:17;21.10;60.90
19088;DHT22;9676;50.916;13.352;2023-05-20T08:25:07;21.50;60.60
19088;DHT22;9676;50.916;13.352;2023-05-20T08:28:00;21.90;60.00
19088;DHT22;9676;50.916;13.352;2023-05-20T08:30:56;22.30;60.50
19088;DHT22;9676;50.916;13.352;2023-05-20T08:33:46;22.80;60.60
19088;DHT22;9676;50.916;13.352;2023-05-20T08:36:35;23.30;60.30
19088;DHT22;9676;50.916;13.352;2023-05-20T08:39:25;23.90;60.00
19088;DHT22;9676;50.916;13.352;2023-05-20T08:42:20;24.40;59.30
19088;DHT22;9676;50.916;13.352;2023-05-20T08:45:18;24.90;59.60
19088;DHT22;9676;50.916;13.352;2023-05-20T08:48:10;25.40;58.50
19088;DHT22;9676;50.916;13.352;2023-05-20T08:51:02;25.90;58.60
19088;DHT22;9676;50.916;13.352;2023-05-20T08:53:51;26.40;57.50
19088;DHT22;9676;50.916;13.352;2023-05-20T08:56:42;26.90;57.50
19088;DHT22;9676;50.916;13.352;2023-05-20T08:59:32;27.40;56.10
19088;DHT22;9676;50.916;13.352;2023-05-20T09:02:22;27.80;56.30
19088;DHT22;9676;50.916;13.352;2023-05-20T09:05:13;28.20;56.40
19088;DHT22;9676;50.916;13.352;2023-05-20T09:08:04;28.70;55.20
19088;DHT22;9676;50.916;13.352;2023-05-20T09:10:54;29.00;55.20
19088;DHT22;9676;50.916;13.352;2023-05-20T09:13:44;29.50;55.30
19088;DHT22;9676;50.916;13.352;2023-05-20T09:16:34;29.90;55.00
19088;DHT22;9676;50.916;13.352;2023-05-20T09:19:23;30.50;54.70
19088;DHT22;9676;50.916;13.352;2023-05-20T09:22:21;31.00;54.50
19088;DHT22;9676;50.916;13.352;2023-05-20T09:25:11;31.50;53.20
19088;DHT22;9676;50.916;13.352;2023-05-20T09:28:03;31.80;51.80
19088;DHT22;9676;50.916;13.352;2023-05-20T09:30:57;32.00;51.50
19088;DHT22;9676;50.916;13.352;2023-05-20T09:33:48;32.20;50.90
19088;DHT22;9676;50.916;13.352;2023-05-20T09:36:39;32.30;50.60
19088;DHT22;9676;50.916;13.352;2023-05-20T09:39:40;32.40;50.50
19088;DHT22;9676;50.916;13.352;2023-05-20T09:42:39;32.60;49.80
19088;DHT22;9676;50.916;13.352;2023-05-20T09:45:30;32.70;49.40
19088;DHT22;9676;50.916;13.352;2023-05-20T09:48:20;32.70;49.70
19088;DHT22;9676;50.916;13.352;2023-05-20T09:51:12;32.80;49.80
19088;DHT22;9676;50.916;13.352;2023-05-20T09:54:03;33.00;49.60
19088;DHT22;9676;50.916;13.352;2023-05-20T09:56:57;33.20;49.60
19088;DHT22;9676;50.916;13.352;2023-05-20T09:59:49;33.40;49.20
19088;DHT22;9676;50.916;13.352;2023-05-20T10:02:41;33.40;48.50
19088;DHT22;9676;50.916;13.352;2023-05-20T10:05:36;33.60;48.40
19088;DHT22;9676;50.916;13.352;2023-05-20T10:08:36;33.70;47.20
19088;DHT22;9676;50.916;13.352;2023-05-20T10:11:39;33.70;46.70
19088;DHT22;9676;50.916;13.352;2023-05-20T10:14:45;33.60;45.60
19088;DHT22;9676;50.916;13.352;2023-05-20T10:17:47;33.60;45.90
19088;DHT22;9676;50.916;13.352;2023-05-20T10:20:47;33.40;45.60
19088;DHT22;9676;50.916;13.352;2023-05-20T10:23:36;33.40;45.90
19088;DHT22;9676;50.916;13.352;2023-05-20T10:26:34;33.40;45.90
19088;DHT22;9676;50.916;13.352;2023-05-20T10:29:24;33.40;45.70
19088;DHT22;9676;50.916;13.352;2023-05-20T10:32:25;33.40;46.20
19088;DHT22;9676;50.916;13.352;2023-05-20T10:35:20;33.50;45.10
19088;DHT22;9676;50.916;13.352;2023-05-20T10:38:13;33.50;44.80
19088;DHT22;9676;50.916;13.352;2023-05-20T10:41:09;33.50;45.00
19088;DHT22;9676;50.916;13.352;2023-05-20T10:43:59;33.30;43.80
19088;DHT22;9676;50.916;13.352;2023-05-20T10:47:01;33.00;43.70
19088;DHT22;9676;50.916;13.352;2023-05-20T10:49:55;32.80;43.80
19088;DHT22;9676;50.916;13.352;2023-05-20T10:52:44;32.60;43.80
19088;DHT22;9676;50.916;13.352;2023-05-20T10:55:35;32.40;43.60
19088;DHT22;9676;50.916;13.352;2023-05-20T10:58:26;32.20;43.10
19088;DHT22;9676;50.916;13.352;2023-05-20T11:01:16;32.00;43.70
19088;DHT22;9676;50.916;13.352;2023-05-20T11:04:07;31.80;44.10
19088;DHT22;9676;50.916;13.352;2023-05-20T11:06:58;31.70;44.60
19088;DHT22;9676;50.916;13.352;2023-05-20T11:09:48;31.70;44.70
19088;DHT22;9676;50.916;13.352;2023-05-20T11:12:38;31.60;44.10
19088;DHT22;9676;50.916;13.352;2023-05-20T11:15:30;31.40;43.70
19088;DHT22;9676;50.916;13.352;2023-05-20T11:18:20;31.00;43.50
19088;DHT22;9676;50.916;13.352;2023-05-20T11:21:09;30.70;43.50
19088;DHT22;9676;50.916;13.352;2023-05-20T11:24:00;30.40;43.10
19088;DHT22;9676;50.916;13.352;2023-05-20T11:26:50;30.10;43.30
19088;DHT22;9676;50.916;13.352;2023-05-20T11:29:39;29.80;43.30
19088;DHT22;9676;50.916;13.352;2023-05-20T11:32:29;29.50;43.10
19088;DHT22;9676;50.916;13.352;2023-05-20T11:35:21;29.10;43.10
19088;DHT22;9676;50.916;13.352;2023-05-20T11:38:11;28.70;43.20
19088;DHT22;9676;50.916;13.352;2023-05-20T11:41:02;28.30;43.50
19088;DHT22;9676;50.916;13.352;2023-05-20T11:43:56;27.90;43.90
19088;DHT22;9676;50.916;13.352;2023-05-20T11:46:46;27.60;44.30
19088;DHT22;9676;50.916;13.352;2023-05-20T11:49:39;27.30;44.60
19088;DHT22;9676;50.916;13.352;2023-05-20T11:52:28;27.10;44.90
19088;DHT22;9676;50.916;13.352;2023-05-20T11:55:18;26.90;45.20
19088;DHT22;9676;50.916;13.352;2023-05-20T11:58:09;26.80;45.40
19088;DHT22;9676;50.916;13.352;2023-05-20T12:00:58;26.60;45.60
19088;DHT22;9676;50.916;13.352;2023-05-20T12:04:08;26.50;45.80
19088;DHT22;9676;50.916;13.352;2023-05-20T12:06:58;26.30;45.80
19088;DHT22;9676;50.916;13.352;2023-05-20T12:09:47;26.20;46.20
19088;DHT22;9676;50.916;13.352;2023-05-20T12:12:37;26.10;46.30
19088;DHT22;9676;50.916;13.352;2023-05-20T12:15:28;26.10;46.70
19088;DHT22;9676;50.916;13.352;2023-05-20T12:18:17;26.00;46.80
19088;DHT22;9676;50.916;13.352;2023-05-20T12:21:07;26.00;46.90
19088;DHT22;9676;50.916;13.352;2023-05-20T12:23:57;25.90;47.00
19088;DHT22;9676;50.916;13.352;2023-05-20T12:26:47;25.90;46.90
19088;DHT22;9676;50.916;13.352;2023-05-20T12:29:36;25.80;46.90
19088;DHT22;9676;50.916;13.352;2023-05-20T12:32:27;25.80;47.20
19088;DHT22;9676;50.916;13.352;2023-05-20T12:35:23;25.70;47.20
19088;DHT22;9676;50.916;13.352;2023-05-20T12:38:13;25.70;47.40
19088;DHT22;9676;50.916;13.352;2023-05-20T12:41:03;25.70;47.50
19088;DHT22;9676;50.916;13.352;2023-05-20T12:43:52;25.60;47.50
19088;DHT22;9676;50.916;13.352;2023-05-20T12:46:42;25.60;47.80
19088;DHT22;9676;50.916;13.352;2023-05-20T12:49:33;25.60;48.20
19088;DHT22;9676;50.916;13.352;2023-05-20T12:52:22;25.60;48.20
19088;DHT22;9676;50.916;13.352;2023-05-20T12:55:12;25.60;48.20
19088;DHT22;9676;50.916;13.352;2023-05-20T12:58:01;25.60;48.20
19088;DHT22;9676;50.916;13.352;2023-05-20T13:00:51;25.60;48.20
19088;DHT22;9676;50.916;13.352;2023-05-20T13:03:41;25.60;48.40
19088;DHT22;9676;50.916;13.352;2023-05-20T13:06:33;25.60;48.40
19088;DHT22;9676;50.916;13.352;2023-05-20T13:09:22;25.50;48.60
19088;DHT22;9676;50.916;13.352;2023-05-20T13:12:12;25.60;48.80
19088;DHT22;9676;50.916;13.352;2023-05-20T13:15:02;25.50;48.80
19088;DHT22;9676;50.916;13.352;2023-05-20T13:17:53;25.60;48.90
19088;DHT22;9676;50.916;13.352;2023-05-20T13:20:43;25.60;48.90
19088;DHT22;9676;50.916;13.352;2023-05-20T13:23:34;25.60;49.10
19088;DHT22;9676;50.916;13.352;2023-05-20T13:26:23;25.60;49.10
19088;DHT22;9676;50.916;13.352;2023-05-20T13:29:13;25.60;49.20
19088;DHT22;9676;50.916;13.352;2023-05-20T13:32:03;25.60;49.30
19088;DHT22;9676;50.916;13.352;2023-05-20T13:34:53;25.60;49.40
19088;DHT22;9676;50.916;13.352;2023-05-20T13:37:43;25.60;49.50
19088;DHT22;9676;50.916;13.352;2023-05-20T13:40:34;25.60;49.30
19088;DHT22;9676;50.916;13.352;2023-05-20T13:43:24;25.60;49.30
19088;DHT22;9676;50.916;13.352;2023-05-20T13:46:15;25.70;49.40
19088;DHT22;9676;50.916;13.352;2023-05-20T13:49:05;25.70;49.30
19088;DHT22;9676;50.916;13.352;2023-05-20T13:51:55;25.70;49.40
19088;DHT22;9676;50.916;13.352;2023-05-20T13:54:44;25.70;49.30
19088;DHT22;9676;50.916;13.352;2023-05-20T13:57:36;25.60;49.30
19088;DHT22;9676;50.916;13.352;2023-05-20T14:00:26;25.60;49.50
19088;DHT22;9676;50.916;13.352;2023-05-20T14:03:15;25.60;49.70
19088;DHT22;9676;50.916;13.352;2023-05-20T14:06:05;25.70;49.90
19088;DHT22;9676;50.916;13.352;2023-05-20T14:08:55;25.80;49.80
19088;DHT22;9676;50.916;13.352;2023-05-20T14:11:45;25.80;49.60
19088;DHT22;9676;50.916;13.352;2023-05-20T14:14:36;25.90;49.60
19088;DHT22;9676;50.916;13.352;2023-05-20T14:17:25;25.90;49.60
19088;DHT22;9676;50.916;13.352;2023-05-20T14:20:15;25.80;49.60
19088;DHT22;9676;50.916;13.352;2023-05-20T14:23:04;25.80;49.70
19088;DHT22;9676;50.916;13.352;2023-05-20T14:25:54;25.80;49.70
19088;DHT22;9676;50.916;13.352;2023-05-20T14:28:44;25.80;49.60
19088;DHT22;9676;50.916;13.352;2023-05-20T14:31:35;25.70;49.50
19088;DHT22;9676;50.916;13.352;2023-05-20T14:34:25;25.70;49.40
19088;DHT22;9676;50.916;13.352;2023-05-20T14:37:15;25.60;49.40
19088;DHT22;9676;50.916;13.352;2023-05-20T14:40:05;25.50;49.40
19088;DHT22;9676;50.916;13.352;2023-05-20T14:42:56;25.40;49.40
19088;DHT22;9676;50.916;13.352;2023-05-20T14:45:45;25.40;49.50
19088;DHT22;9676;50.916;13.352;2023-05-20T14:48:37;25.30;49.60
19088;DHT22;9676;50.916;13.352;2023-05-20T14:51:26;25.20;49.70
19088;DHT22;9676;50.916;13.352;2023-05-20T14:54:16;25.20;50.00
19088;DHT22;9676;50.916;13.352;2023-05-20T14:57:11;25.20;50.10
19088;DHT22;9676;50.916;13.352;2023-05-20T15:00:03;25.10;50.10
19088;DHT22;9676;50.916;13.352;2023-05-20T15:02:53;25.20;50.30
19088;DHT22;9676;50.916;13.352;2023-05-20T15:05:44;25.10;50.20
19088;DHT22;9676;50.916;13.352;2023-05-20T15:08:33;25.00;50.10
19088;DHT22;9676;50.916;13.352;2023-05-20T15:11:23;25.00;50.30
19088;DHT22;9676;50.916;13.352;2023-05-20T15:14:13;25.00;50.40
19088;DHT22;9676;50.916;13.352;2023-05-20T15:17:03;24.90;50.50
19088;DHT22;9676;50.916;13.352;2023-05-20T15:19:53;25.00;50.60
19088;DHT22;9676;50.916;13.352;2023-05-20T15:22:44;25.00;51.40
19088;DHT22;9676;50.916;13.352;2023-05-20T15:25:35;25.00;50.70
19088;DHT22;9676;50.916;13.352;2023-05-20T15:28:24;24.90;50.50
19088;DHT22;9676;50.916;13.352;2023-05-20T15:31:13;24.90;50.50
19088;DHT22;9676;50.916;13.352;2023-05-20T15:34:03;24.80;50.50
19088;DHT22;9676;50.916;13.352;2023-05-20T15:36:53;24.70;50.80
19088;DHT22;9676;50.916;13.352;2023-05-20T15:39:44;24.60;50.80
19088;DHT22;9676;50.916;13.352;2023-05-20T15:42:33;24.60;50.90
19088;DHT22;9676;50.916;13.352;2023-05-20T15:45:23;24.60;51.00
19088;DHT22;9676;50.916;13.352;2023-05-20T15:48:12;24.60;51.10
19088;DHT22;9676;50.916;13.352;2023-05-20T15:51:02;24.60;51.20
19088;DHT22;9676;50.916;13.352;2023-05-20T15:53:52;24.60;51.30
19088;DHT22;9676;50.916;13.352;2023-05-20T15:56:42;24.60;51.50
19088;DHT22;9676;50.916;13.352;2023-05-20T15:59:32;24.60;51.30
19088;DHT22;9676;50.916;13.352;2023-05-20T16:02:21;24.60;51.30
19088;DHT22;9676;50.916;13.352;2023-05-20T16:05:11;24.60;51.30
19088;DHT22;9676;50.916;13.352;2023-05-20T16:08:01;24.60;51.30
19088;DHT22;9676;50.916;13.352;2023-05-20T16:10:51;24.60;51.60
19088;DHT22;9676;50.916;13.352;2023-05-20T16:13:42;24.60;51.50
19088;DHT22;9676;50.916;13.352;2023-05-20T16:16:32;24.70;51.60
19088;DHT22;9676;50.916;13.352;2023-05-20T16:19:23;24.70;51.60
19088;DHT22;9676;50.916;13.352;2023-05-20T16:22:12;24.70;51.60
19088;DHT22;9676;50.916;13.352;2023-05-20T16:25:03;24.70;51.40
19088;DHT22;9676;50.916;13.352;2023-05-20T16:27:53;24.70;51.40
19088;DHT22;9676;50.916;13.352;2023-05-20T16:30:45;24.70;51.60
19088;DHT22;9676;50.916;13.352;2023-05-20T16:33:34;24.70;51.70
19088;DHT22;9676;50.916;13.352;2023-05-20T16:36:24;24.70;51.70
19088;DHT22;9676;50.916;13.352;2023-05-20T16:39:14;24.70;51.70
19088;DHT22;9676;50.916;13.352;2023-05-20T16:42:04;24.70;51.80
19088;DHT22;9676;50.916;13.352;2023-05-20T16:44:55;24.70;51.60
19088;DHT22;9676;50.916;13.352;2023-05-20T16:47:46;24.70;51.40
19088;DHT22;9676;50.916;13.352;2023-05-20T16:50:36;24.70;51.40
19088;DHT22;9676;50.916;13.352;2023-05-20T16:53:25;24.60;51.30
19088;DHT22;9676;50.916;13.352;2023-05-20T16:56:14;24.50;51.20
19088;DHT22;9676;50.916;13.352;2023-05-20T16:59:04;24.40;51.30
19088;DHT22;9676;50.916;13.352;2023-05-20T17:01:54;24.30;51.60
19088;DHT22;9676;50.916;13.352;2023-05-20T17:04:44;24.20;51.50
19088;DHT22;9676;50.916;13.352;2023-05-20T17:07:34;24.10;51.50
19088;DHT22;9676;50.916;13.352;2023-05-20T17:10:25;24.00;51.60
19088;DHT22;9676;50.916;13.352;2023-05-20T17:13:15;23.90;51.60
19088;DHT22;9676;50.916;13.352;2023-05-20T17:16:06;23.80;51.70
19088;DHT22;9676;50.916;13.352;2023-05-20T17:18:57;23.80;51.70
19088;DHT22;9676;50.916;13.352;2023-05-20T17:21:48;23.70;51.90
19088;DHT22;9676;50.916;13.352;2023-05-20T17:24:37;23.60;51.80
19088;DHT22;9676;50.916;13.352;2023-05-20T17:27:27;23.50;51.80
19088;DHT22;9676;50.916;13.352;2023-05-20T17:30:16;23.50;51.90
19088;DHT22;9676;50.916;13.352;2023-05-20T17:33:06;23.40;51.90
19088;DHT22;9676;50.916;13.352;2023-05-20T17:35:55;23.30;51.90
19088;DHT22;9676;50.916;13.352;2023-05-20T17:38:46;23.20;51.80
19088;DHT22;9676;50.916;13.352;2023-05-20T17:41:36;23.20;52.00
19088;DHT22;9676;50.916;13.352;2023-05-20T17:44:25;23.10;51.90
19088;DHT22;9676;50.916;13.352;2023-05-20T17:47:15;23.00;51.90
19088;DHT22;9676;50.916;13.352;2023-05-20T17:50:05;22.90;52.00
19088;DHT22;9676;50.916;13.352;2023-05-20T17:52:56;22.80;52.00
19088;DHT22;9676;50.916;13.352;2023-05-20T17:55:47;22.70;52.10
19088;DHT22;9676;50.916;13.352;2023-05-20T17:58:37;22.70;52.30